Time;durP1;ratioP1;P1;durP2;ratioP2;P2;SDS_P1;SDS_P2;PMS_P1;PMS_P2;Temp;Humidity;BMP_temperature;BMP_pressure;BME280_temperature;BME280_humidity;BME280_pressure;Samples;Min_cycle;Max_cycle;Signal;HPM_P1;HPM_P2
2020/12/09 05:30:46;;;;;;;1999.90;999.90;;;8.40;99.90;;;;;;5823991;23;20224;-80
2020/12/09 05:33:21;;;;;;;1999.90;999.90;;;8.50;99.90;;;;;;4979161;28;20702;-80
2020/12/09 05:35:55;;;;;;;1999.90;999.90;;;8.40;99.90;;;;;;4979400;28;20209;-78
2020/12/09 05:38:22;;;;;;;1999.90;999.90;;;8.50;99.90;;;;;;4979642;28;20207;-78
2020/12/09 05:40:49;;;;;;;1999.90;999.90;;;8.60;99.90;;;;;;4977317;28;20251;-78
2020/12/09 05:43:17;;;;;;;1999.90;999.90;;;8.70;99.90;;;;;;4978149;28;20742;-79
2020/12/09 05:45:45;;;;;;;1999.90;999.90;;;8.70;99.90;;;;;;4978470;28;20204;-81
2020/12/09 05:48:18;;;;;;;1999.90;999.90;;;8.70;99.90;;;;;;4977408;28;20208;-80
2020/12/09 05:50:50;;;;;;;1999.90;999.90;;;8.70;99.90;;;;;;4969664;28;20354;-81
2020/12/09 05:53:19;;;;;;;1999.90;999.90;;;8.80;99.90;;;;;;4977285;28;20697;-78
2020/12/09 05:55:47;;;;;;;1999.90;999.90;;;8.70;99.90;;;;;;4977708;28;20201;-79
2020/12/09 05:58:25;;;;;;;1999.90;999.90;;;8.70;99.90;;;;;;4978350;28;20211;-82
2020/12/09 06:01:12;;;;;;;1999.90;999.90;;;8.70;99.90;;;;;;4977824;28;20228;-80
2020/12/09 06:03:40;;;;;;;1999.90;999.90;;;8.70;99.90;;;;;;4977615;28;20224;-80
2020/12/09 06:06:18;;;;;;;1999.90;999.90;;;8.70;99.90;;;;;;4976561;28;20204;-79
2020/12/09 06:08:47;;;;;;;1999.90;999.90;;;8.80;99.90;;;;;;4977505;28;20686;-80
2020/12/09 06:11:16;;;;;;;1999.90;999.90;;;8.80;99.90;;;;;;4977759;28;20247;-79
2020/12/09 06:13:44;;;;;;;1999.90;999.90;;;8.90;99.90;;;;;;4978422;28;20213;-80
2020/12/09 06:16:12;;;;;;;1999.90;999.90;;;8.90;99.90;;;;;;4979177;28;20345;-79
2020/12/09 06:18:46;;;;;;;1999.90;999.90;;;8.90;99.90;;;;;;4976305;28;20278;-80
2020/12/09 06:21:13;;;;;;;1999.90;999.90;;;8.90;99.90;;;;;;4978314;28;20224;-79
2020/12/09 06:23:41;;;;;;;1999.90;999.90;;;8.90;99.90;;;;;;4978525;28;20279;-79
2020/12/09 06:26:08;;;;;;;1999.90;999.90;;;8.90;99.90;;;;;;4979197;28;20204;-79
2020/12/09 06:28:37;;;;;;;1999.90;999.90;;;8.90;99.90;;;;;;4979580;28;20231;-80
2020/12/09 06:31:12;;;;;;;1999.90;999.90;;;8.80;99.90;;;;;;4979641;28;20283;-80
2020/12/09 06:33:41;;;;;;;1999.90;999.90;;;8.70;99.90;;;;;;4978054;28;20202;-78
2020/12/09 06:36:21;;;;;;;1999.90;999.90;;;8.70;99.90;;;;;;4976942;28;20204;-79
2020/12/09 06:39:12;;;;;;;1999.90;999.90;;;8.80;99.90;;;;;;4978509;28;20662;-78
2020/12/09 06:41:41;;;;;;;1999.90;999.90;;;8.70;99.90;;;;;;4977788;28;20273;-79
2020/12/09 06:44:09;;;;;;;1999.90;999.90;;;8.80;99.90;;;;;;4977084;28;20221;-79
2020/12/09 13:00:11;;;;;;;1999.90;999.90;;;9.60;99.90;;;;;;6039629;23;20176;31
2020/12/09 13:02:39;;;;;;;1999.90;999.90;;;9.60;99.90;;;;;;4936210;29;20223;-78
2020/12/09 13:05:07;;;;;;;1999.90;999.90;;;9.70;99.90;;;;;;4938166;29;20210;-78
2020/12/09 13:07:36;;;;;;;1999.90;999.90;;;9.80;99.90;;;;;;4937765;29;20209;-78
2020/12/09 13:10:03;;;;;;;1999.90;999.90;;;9.70;99.90;;;;;;4937718;29;20663;-77
2020/12/09 13:12:30;;;;;;;1999.90;999.90;;;9.70;99.90;;;;;;4956510;29;20296;-77
2020/12/09 13:14:57;;;;;;;1999.90;999.90;;;9.70;99.90;;;;;;4956774;29;20201;-77
2020/12/09 13:17:25;;;;;;;1999.90;999.90;;;9.50;99.90;;;;;;4957533;29;20202;-78
2020/12/09 13:19:52;;;;;;;1999.90;999.90;;;9.40;99.90;;;;;;4956421;29;20284;-77
2020/12/09 13:22:19;;;;;;;1999.90;999.90;;;9.40;99.90;;;;;;4957093;29;20773;-77
2020/12/09 13:24:46;;;;;;;1999.90;999.90;;;9.40;99.90;;;;;;4956771;29;20221;-77
2020/12/09 13:27:16;;;;;;;1999.90;999.90;;;9.40;99.90;;;;;;4955788;28;20252;-78
2020/12/09 13:29:43;;;;;;;1999.90;999.90;;;9.30;99.90;;;;;;4956825;29;20213;-78
2020/12/09 13:32:10;;;;;;;1999.90;999.90;;;9.30;99.90;;;;;;4956592;29;20619;-78
2020/12/09 13:34:37;;;;;;;1999.90;999.90;;;9.40;99.90;;;;;;4956936;29;20606;-78
2020/12/09 13:37:05;;;;;;;1999.90;999.90;;;9.50;99.90;;;;;;4957254;29;20205;-78
2020/12/09 13:39:32;;;;;;;1999.90;999.90;;;9.50;99.90;;;;;;4956740;29;20252;-78
2020/12/09 13:41:59;;;;;;;1999.90;999.90;;;9.60;99.90;;;;;;4956987;29;20272;-78
2020/12/09 13:44:26;;;;;;;1999.90;999.90;;;9.60;99.90;;;;;;4957307;29;20280;-78
2020/12/09 13:46:53;;;;;;;1999.90;999.90;;;9.70;99.90;;;;;;4957425;29;20638;-78
2020/12/09 13:49:20;;;;;;;1999.90;999.90;;;9.80;99.90;;;;;;4957045;29;20213;-77
2020/12/09 13:51:47;;;;;;;1999.90;999.90;;;9.80;99.90;;;;;;4956766;29;20229;-77
2020/12/09 13:54:15;;;;;;;1999.90;999.90;;;9.80;99.90;;;;;;4957021;29;20260;-77
2020/12/09 13:56:42;;;;;;;1999.90;999.90;;;9.70;99.90;;;;;;4956762;29;20212;-77
2020/12/09 13:59:09;;;;;;;1999.90;999.90;;;9.70;99.90;;;;;;4956226;29;20303;-78
2020/12/09 14:01:36;;;;;;;1999.90;999.90;;;9.70;99.90;;;;;;4957043;29;20229;-78
2020/12/09 14:04:03;;;;;;;1999.90;999.90;;;9.80;99.90;;;;;;4956373;29;20319;-78
2020/12/09 14:06:30;;;;;;;1999.90;999.90;;;9.80;99.90;;;;;;4956327;29;20256;-77
2020/12/09 14:08:57;;;;;;;1999.90;999.90;;;9.80;99.90;;;;;;4956215;29;20213;-77
2020/12/09 14:11:27;;;;;;;1999.90;999.90;;;9.90;99.90;;;;;;4956232;29;20733;-77
2020/12/09 14:13:54;;;;;;;1999.90;999.90;;;9.90;99.90;;;;;;4956141;29;20423;-77
2020/12/09 14:16:22;;;;;;;1999.90;999.90;;;9.90;99.90;;;;;;4956618;29;20205;-77
2020/12/09 14:18:50;;;;;;;1999.90;999.90;;;9.90;99.90;;;;;;4956696;29;20208;-77
2020/12/09 14:21:18;;;;;;;1999.90;999.90;;;9.90;99.90;;;;;;4957241;29;20229;-78
2020/12/09 14:23:48;;;;;;;1999.90;999.90;;;10.00;99.90;;;;;;4954843;29;20268;-74
2020/12/09 14:26:17;;;;;;;1999.90;999.90;;;9.90;99.90;;;;;;4956196;29;20568;-77
2020/12/09 14:28:46;;;;;;;1999.90;999.90;;;9.90;99.90;;;;;;4955435;29;20204;-77
2020/12/09 14:31:13;;;;;;;1999.90;999.90;;;9.80;99.90;;;;;;4955142;29;20790;-77
2020/12/09 14:33:40;;;;;;;1999.90;999.90;;;9.80;99.90;;;;;;4947052;29;20221;-75
2020/12/09 14:36:09;;;;;;;1999.90;999.90;;;9.80;99.90;;;;;;4935509;29;20294;-76
2020/12/09 14:38:36;;;;;;;1999.90;999.90;;;9.80;99.90;;;;;;4940677;28;20198;-76
2020/12/09 14:41:06;;;;;;;1999.90;999.90;;;9.70;99.90;;;;;;4955616;29;20225;-77
2020/12/09 14:43:33;;;;;;;1999.90;999.90;;;9.70;99.90;;;;;;4956769;29;20636;-77
2020/12/09 14:46:01;;;;;;;1999.90;999.90;;;9.70;99.90;;;;;;4957132;29;20667;-77
2020/12/09 14:48:28;;;;;;;1999.90;999.90;;;9.60;99.90;;;;;;4956192;29;20201;-77
2020/12/09 14:50:54;;;;;;;1999.90;999.90;;;9.60;99.90;;;;;;4957040;29;20730;-78
2020/12/09 14:53:21;;;;;;;1999.90;999.90;;;9.60;99.90;;;;;;4957387;29;20213;-77
2020/12/09 14:55:48;;;;;;;1999.90;999.90;;;9.50;99.90;;;;;;4956903;29;20257;-78
2020/12/09 14:58:15;;;;;;;1999.90;999.90;;;9.40;99.90;;;;;;4956389;29;20260;-78
2020/12/09 15:00:42;;;;;;;1999.90;999.90;;;9.40;99.90;;;;;;4956658;29;20713;-77
2020/12/09 15:03:10;;;;;;;1999.90;999.90;;;9.50;99.90;;;;;;4957616;29;20753;-77
2020/12/09 15:05:37;;;;;;;1999.90;999.90;;;9.50;99.90;;;;;;4956286;29;20744;-78
2020/12/09 15:08:05;;;;;;;1999.90;999.90;;;9.40;99.90;;;;;;4958054;29;20252;-80
2020/12/09 15:10:32;;;;;;;1999.90;999.90;;;9.40;99.90;;;;;;4955785;29;20229;-78
2020/12/09 15:12:59;;;;;;;1999.90;999.90;;;9.40;99.90;;;;;;4952575;28;20208;-79
2020/12/09 15:15:26;;;;;;;1999.90;999.90;;;9.40;99.90;;;;;;4946288;29;20207;-78
2020/12/09 15:17:53;;;;;;;1999.90;999.90;;;9.40;99.90;;;;;;4945593;29;20639;-77
2020/12/09 15:20:21;;;;;;;1999.90;999.90;;;9.50;99.90;;;;;;4946971;29;20722;-77
2020/12/09 15:22:47;;;;;;;1999.90;999.90;;;9.50;99.90;;;;;;4938056;29;20619;-78
2020/12/09 15:25:14;;;;;;;1999.90;999.90;;;9.40;99.90;;;;;;4937734;29;20202;-78
2020/12/09 15:27:41;;;;;;;1999.90;999.90;;;9.40;99.90;;;;;;4938183;29;20206;-80
2020/12/09 15:30:09;;;;;;;1999.90;999.90;;;9.40;99.90;;;;;;4943013;29;20210;-80
2020/12/09 15:32:36;;;;;;;1999.90;999.90;;;9.40;99.90;;;;;;4945273;29;20202;-81
2020/12/09 15:35:03;;;;;;;1999.90;999.90;;;9.30;99.90;;;;;;4958607;29;20259;-80
2020/12/09 15:37:35;;;;;;;1999.90;999.90;;;9.40;99.90;;;;;;4958395;29;20265;-81
2020/12/09 15:40:03;;;;;;;1999.90;999.90;;;9.40;99.90;;;;;;4942214;29;20630;-78
2020/12/09 15:42:30;;;;;;;1999.90;999.90;;;9.40;99.90;;;;;;4936503;29;20284;-78
2020/12/09 15:44:57;;;;;;;1999.90;999.90;;;9.20;99.90;;;;;;4938392;29;20273;-78
2020/12/09 15:47:24;;;;;;;1999.90;999.90;;;9.30;99.90;;;;;;4937288;29;20596;-78
2020/12/09 15:49:51;;;;;;;1999.90;999.90;;;9.40;99.90;;;;;;4940714;29;20198;-78
2020/12/09 15:52:18;;;;;;;1999.90;999.90;;;9.40;99.90;;;;;;4946136;29;20265;-77
2020/12/09 15:54:46;;;;;;;1999.90;999.90;;;9.40;99.90;;;;;;4942637;29;20205;-77
2020/12/09 15:57:12;;;;;;;1999.90;999.90;;;9.40;99.90;;;;;;4940213;29;20205;-76
2020/12/09 15:59:39;;;;;;;1999.90;999.90;;;9.50;99.90;;;;;;4938281;29;20261;-76
2020/12/09 16:02:07;;;;;;;1999.90;999.90;;;9.60;99.90;;;;;;4940332;29;20248;-76
2020/12/09 16:04:34;;;;;;;1999.90;999.90;;;9.70;99.90;;;;;;4939205;29;20226;-78
2020/12/09 16:07:01;;;;;;;1999.90;999.90;;;9.70;99.90;;;;;;4950267;29;20671;-79
2020/12/09 16:09:29;;;;;;;1999.90;999.90;;;9.70;99.90;;;;;;4943811;29;20257;-78
2020/12/09 16:11:57;;;;;;;1999.90;999.90;;;9.80;99.90;;;;;;4947288;29;20250;-78
2020/12/09 16:14:24;;;;;;;1999.90;999.90;;;9.60;99.90;;;;;;4947907;29;20202;-78
2020/12/09 16:16:53;;;;;;;1999.90;999.90;;;9.70;99.90;;;;;;4942169;29;20202;-78
2020/12/09 16:19:20;;;;;;;1999.90;999.90;;;9.80;99.90;;;;;;4957004;29;20296;-79
2020/12/09 16:21:47;;;;;;;1999.90;999.90;;;9.70;99.90;;;;;;4961077;29;20214;-77
2020/12/09 16:24:15;;;;;;;1999.90;999.90;;;9.70;99.90;;;;;;4960074;29;20229;-78
2020/12/09 16:26:42;;;;;;;1999.90;999.90;;;9.80;99.90;;;;;;4963486;29;20241;-78
2020/12/09 16:29:09;;;;;;;1999.90;999.90;;;9.90;99.90;;;;;;4962289;29;20355;-78
2020/12/09 16:31:36;;;;;;;1999.90;999.90;;;9.90;99.90;;;;;;4961889;28;20280;-77
2020/12/09 16:34:04;;;;;;;1999.90;999.90;;;9.90;99.90;;;;;;4956233;28;20256;-78
2020/12/09 16:36:32;;;;;;;1999.90;999.90;;;9.90;99.90;;;;;;4940682;29;20548;-77
2020/12/09 16:38:58;;;;;;;1999.90;999.90;;;9.90;99.90;;;;;;4940811;29;20259;-78
2020/12/09 16:41:25;;;;;;;1999.90;999.90;;;9.90;99.90;;;;;;4947958;29;20667;-78
2020/12/09 16:43:52;;;;;;;1999.90;999.90;;;9.80;99.90;;;;;;4960018;29;20649;-78
2020/12/09 16:46:20;;;;;;;1999.90;999.90;;;9.90;99.90;;;;;;4957883;29;20209;-79
2020/12/09 16:48:47;;;;;;;1999.90;999.90;;;9.90;99.90;;;;;;4956826;29;20232;-80
2020/12/09 16:51:14;;;;;;;1999.90;999.90;;;9.80;99.90;;;;;;4956503;29;20228;-77
2020/12/09 16:53:41;;;;;;;1999.90;999.90;;;9.90;99.90;;;;;;4959945;29;20205;-78
2020/12/09 16:56:08;;;;;;;1999.90;999.90;;;9.90;99.90;;;;;;4959423;29;20551;-77
2020/12/09 16:58:35;;;;;;;1999.90;999.90;;;9.90;99.90;;;;;;4959932;29;20212;-77
2020/12/09 17:01:02;;;;;;;1999.90;999.90;;;9.90;99.90;;;;;;4957582;28;20233;-77
2020/12/09 17:03:32;;;;;;;1999.90;999.90;;;9.90;99.90;;;;;;4960145;29;20225;-76
2020/12/09 17:05:59;;;;;;;1999.90;999.90;;;9.80;99.90;;;;;;4959575;29;20205;-77
2020/12/09 17:08:25;;;;;;;1999.90;999.90;;;9.80;99.90;;;;;;4956560;29;20260;-76
2020/12/09 17:10:52;;;;;;;1999.90;999.90;;;9.80;99.90;;;;;;4956282;29;20252;-76
2020/12/09 17:13:19;;;;;;;1999.90;999.90;;;9.80;99.90;;;;;;4956115;29;20690;-76
2020/12/09 17:15:46;;;;;;;1999.90;999.90;;;9.70;99.90;;;;;;4956700;29;20213;-77
2020/12/09 17:18:13;;;;;;;1999.90;999.90;;;9.60;99.90;;;;;;4957575;29;20205;-80
2020/12/09 17:20:41;;;;;;;1999.90;999.90;;;9.70;99.90;;;;;;4962789;29;20682;-82
2020/12/09 17:23:08;;;;;;;1999.90;999.90;;;9.60;99.90;;;;;;4964193;29;20206;-82
2020/12/09 17:25:35;;;;;;;1999.90;999.90;;;9.60;99.90;;;;;;4964120;29;20288;-77
2020/12/09 17:28:02;;;;;;;1999.90;999.90;;;9.70;99.90;;;;;;4963310;29;20210;-83
2020/12/09 17:30:30;;;;;;;1999.90;999.90;;;9.70;99.90;;;;;;4959823;29;20293;-82
2020/12/09 17:32:57;;;;;;;1999.90;999.90;;;9.80;99.90;;;;;;4966881;29;20881;-79
2020/12/09 17:35:24;;;;;;;1999.90;999.90;;;9.80;99.90;;;;;;4962493;29;20210;-81
2020/12/09 17:37:51;;;;;;;1999.90;999.90;;;9.90;99.90;;;;;;4966993;29;20232;-81
2020/12/09 17:40:18;;;;;;;1999.90;999.90;;;9.80;99.90;;;;;;4963717;29;20550;-81
2020/12/09 17:42:46;;;;;;;1999.90;999.90;;;9.80;99.90;;;;;;4969293;29;20209;-81
2020/12/09 17:45:14;;;;;;;1999.90;999.90;;;9.80;99.90;;;;;;4961766;29;20729;-79
2020/12/09 17:47:41;;;;;;;1999.90;999.90;;;9.80;99.90;;;;;;4957998;29;20257;-77
2020/12/09 17:50:08;;;;;;;1999.90;999.90;;;9.90;99.90;;;;;;4956064;29;20662;-76
2020/12/09 17:52:35;;;;;;;1999.90;999.90;;;9.90;99.90;;;;;;4958233;29;20359;-82
2020/12/09 17:55:03;;;;;;;1999.90;999.90;;;9.90;99.90;;;;;;4961330;29;20253;-77
2020/12/09 17:57:30;;;;;;;1999.90;999.90;;;9.80;99.90;;;;;;4957783;29;20190;-83
2020/12/09 17:59:56;;;;;;;1999.90;999.90;;;9.80;99.90;;;;;;4957300;29;20201;-80
2020/12/09 18:02:23;;;;;;;1999.90;999.90;;;9.70;99.90;;;;;;4957258;29;20240;-79
2020/12/09 18:04:50;;;;;;;1999.90;999.90;;;9.50;99.90;;;;;;4959659;29;20253;-80
2020/12/09 18:07:17;;;;;;;1999.90;999.90;;;9.50;99.90;;;;;;4946366;29;20615;-79
2020/12/09 18:09:44;;;;;;;1999.90;999.90;;;9.50;99.90;;;;;;4946056;29;20356;-79
2020/12/09 18:12:14;;;;;;;1999.90;999.90;;;9.40;99.90;;;;;;4939234;29;20297;-82
2020/12/09 18:14:40;;;;;;;1999.90;999.90;;;9.30;99.90;;;;;;4954580;29;20253;-78
2020/12/09 18:17:07;;;;;;;1999.90;999.90;;;9.20;99.90;;;;;;4963140;29;20229;-79
2020/12/09 18:19:34;;;;;;;1999.90;999.90;;;9.10;99.90;;;;;;4964902;29;20218;-79
2020/12/09 18:22:01;;;;;;;1999.90;999.90;;;9.10;99.90;;;;;;4957272;29;20303;-80
2020/12/09 18:24:29;;;;;;;1999.90;999.90;;;9.00;99.90;;;;;;4960203;29;20225;-80
2020/12/09 18:26:56;;;;;;;1999.90;999.90;;;8.90;99.90;;;;;;4955773;29;20209;-78
2020/12/09 18:29:24;;;;;;;1999.90;999.90;;;8.80;99.90;;;;;;4953391;29;20627;-78
2020/12/09 18:31:53;;;;;;;1999.90;999.90;;;8.70;99.90;;;;;;4954880;29;20228;-81
2020/12/09 18:34:20;;;;;;;1999.90;999.90;;;8.60;99.90;;;;;;4955245;29;20201;-79
2020/12/09 18:36:47;;;;;;;1999.90;999.90;;;8.60;99.90;;;;;;4955466;29;20264;-80
2020/12/09 18:39:14;;;;;;;1999.90;999.90;;;8.60;99.90;;;;;;4955548;29;20213;-80
2020/12/09 18:41:41;;;;;;;1999.90;999.90;;;9.30;99.90;;;;;;4955642;29;20229;-79
2020/12/09 18:44:08;;;;;;;1999.90;999.90;;;8.50;99.90;;;;;;4957157;29;20225;-78
2020/12/09 18:46:35;;;;;;;1999.90;999.90;;;8.50;99.90;;;;;;4948471;29;20213;-77
2020/12/09 18:49:04;;;;;;;1999.90;999.90;;;8.50;99.90;;;;;;4954080;29;20224;-77
2020/12/09 18:51:32;;;;;;;1999.90;999.90;;;8.40;99.90;;;;;;4959876;29;20232;-78
2020/12/09 18:53:59;;;;;;;1999.90;999.90;;;8.40;99.90;;;;;;4960386;29;20255;-79
2020/12/09 18:56:26;;;;;;;1999.90;999.90;;;8.40;99.90;;;;;;4953339;29;20650;-77
2020/12/09 18:58:55;;;;;;;1999.90;999.90;;;8.40;99.90;;;;;;4957745;29;20260;-77
2020/12/09 19:01:22;;;;;;;1999.90;999.90;;;8.20;99.90;;;;;;4955168;29;20792;-79
2020/12/09 19:03:50;;;;;;;1999.90;999.90;;;8.30;99.90;;;;;;4954881;29;20209;-77
2020/12/09 19:06:22;;;;;;;1999.90;999.90;;;8.30;99.90;;;;;;4956730;29;20260;-80
2020/12/09 19:08:50;;;;;;;1999.90;999.90;;;8.30;99.90;;;;;;4956296;29;20202;-80
2020/12/09 19:11:24;;;;;;;1999.90;999.90;;;8.30;99.90;;;;;;4958558;29;20659;-80
2020/12/09 19:13:52;;;;;;;1999.90;999.90;;;8.30;99.90;;;;;;4959763;29;20449;-78
2020/12/09 19:16:20;;;;;;;1999.90;999.90;;;8.30;99.90;;;;;;4952870;28;20214;-81
2020/12/09 19:18:47;;;;;;;1999.90;999.90;;;8.20;99.90;;;;;;4953267;29;20194;-82
2020/12/09 19:21:17;;;;;;;1999.90;999.90;;;8.20;99.90;;;;;;4940160;29;20234;-81
2020/12/09 19:23:44;;;;;;;1999.90;999.90;;;8.00;99.90;;;;;;4940438;29;20201;-81
2020/12/09 19:26:18;;;;;;;1999.90;999.90;;;8.00;99.90;;;;;;4937210;29;20205;-81
2020/12/09 19:28:45;;;;;;;1999.90;999.90;;;7.90;99.90;;;;;;4940782;29;20225;-82
2020/12/09 19:31:12;;;;;;;1999.90;999.90;;;7.90;99.90;;;;;;4940047;29;20254;-79
2020/12/09 19:33:39;;;;;;;1999.90;999.90;;;7.90;99.90;;;;;;4939022;29;20213;-82
2020/12/09 19:36:06;;;;;;;1999.90;999.90;;;7.90;99.90;;;;;;4938115;29;20735;-81
2020/12/09 19:38:34;;;;;;;1999.90;999.90;;;8.00;99.90;;;;;;4938385;29;20202;-81
2020/12/09 19:41:00;;;;;;;1999.90;999.90;;;8.00;99.90;;;;;;4937189;29;20229;-80
2020/12/09 19:43:27;;;;;;;1999.90;999.90;;;8.00;99.90;;;;;;4938159;29;20230;-81
2020/12/09 19:45:54;;;;;;;1999.90;999.90;;;8.10;99.90;;;;;;4938122;29;20234;-81
2020/12/09 19:48:21;;;;;;;1999.90;999.90;;;8.20;99.90;;;;;;4937937;29;20214;-82
2020/12/09 19:50:48;;;;;;;1999.90;999.90;;;8.20;99.90;;;;;;4937533;29;20236;-80
2020/12/09 19:53:15;;;;;;;1999.90;999.90;;;7.90;99.90;;;;;;4938300;29;20205;-81
2020/12/09 19:55:43;;;;;;;1999.90;999.90;;;7.90;99.90;;;;;;4940017;29;20206;-81
2020/12/09 19:58:12;;;;;;;1999.90;999.90;;;8.00;99.90;;;;;;4940449;29;20246;-81
2020/12/09 20:00:39;;;;;;;1999.90;999.90;;;7.80;99.90;;;;;;4939709;29;20234;-80
2020/12/09 20:03:06;;;;;;;1999.90;999.90;;;7.80;99.90;;;;;;4940697;29;20273;-81
2020/12/09 20:05:33;;;;;;;1999.90;999.90;;;7.80;99.90;;;;;;4953610;29;20233;-80
2020/12/09 20:08:01;;;;;;;1999.90;999.90;;;7.90;99.90;;;;;;4960021;29;20201;-77
2020/12/09 20:10:28;;;;;;;1999.90;999.90;;;7.80;99.90;;;;;;4966646;28;20236;-78
2020/12/09 20:12:56;;;;;;;1999.90;999.90;;;7.70;99.90;;;;;;4963665;29;20618;-77
2020/12/09 20:15:24;;;;;;;1999.90;999.90;;;7.60;99.90;;;;;;4962724;28;20209;-77
2020/12/09 20:17:51;;;;;;;1999.90;999.90;;;7.60;99.90;;;;;;4961180;29;20290;-77
2020/12/09 20:20:18;;;;;;;1999.90;999.90;;;7.70;99.90;;;;;;4959818;28;20209;-78
2020/12/09 20:22:48;;;;;;;1999.90;999.90;;;7.70;99.90;;;;;;4963077;29;20201;-78
2020/12/09 20:25:15;;;;;;;1999.90;999.90;;;7.80;99.90;;;;;;4961292;28;20256;-79
2020/12/09 20:27:42;;;;;;;1999.90;999.90;;;7.70;99.90;;;;;;4966971;29;20247;-77
2020/12/09 20:30:09;;;;;;;1999.90;999.90;;;7.80;99.90;;;;;;4969770;28;20220;-79
2020/12/09 20:32:36;;;;;;;1999.90;999.90;;;7.70;99.90;;;;;;4970451;29;20198;-79
2020/12/09 20:35:05;;;;;;;1999.90;999.90;;;7.60;99.90;;;;;;4971042;29;20225;-79
2020/12/09 20:37:38;;;;;;;1999.90;999.90;;;7.60;99.90;;;;;;4958136;29;20238;-78
2020/12/09 20:40:05;;;;;;;1999.90;999.90;;;7.50;99.90;;;;;;4955990;29;20210;-77
2020/12/09 20:42:32;;;;;;;1999.90;999.90;;;7.50;99.90;;;;;;4955634;29;20261;-78
2020/12/09 20:45:05;;;;;;;1999.90;999.90;;;7.50;99.90;;;;;;4953428;29;20234;-81
2020/12/09 20:47:33;;;;;;;1999.90;999.90;;;7.60;99.90;;;;;;4941732;29;20206;-78
2020/12/09 20:50:00;;;;;;;1999.90;999.90;;;7.60;99.90;;;;;;4941640;29;20217;-79
2020/12/09 20:52:34;;;;;;;1999.90;999.90;;;7.50;99.90;;;;;;4939742;29;20281;-79
2020/12/09 20:55:01;;;;;;;1999.90;999.90;;;7.40;99.90;;;;;;4938578;29;20213;-79
2020/12/09 20:57:28;;;;;;;1999.90;999.90;;;7.30;99.90;;;;;;4938509;29;20249;-80
2020/12/09 20:59:55;;;;;;;1999.90;999.90;;;7.30;99.90;;;;;;4937770;29;20206;-79
2020/12/09 21:02:22;;;;;;;1999.90;999.90;;;7.30;99.90;;;;;;4937543;29;20734;-80
2020/12/09 21:04:50;;;;;;;1999.90;999.90;;;7.20;99.90;;;;;;4937861;29;20237;-78
2020/12/09 21:07:17;;;;;;;1999.90;999.90;;;7.20;99.90;;;;;;4938133;29;20265;-81
2020/12/09 21:09:43;;;;;;;1999.90;999.90;;;7.10;99.90;;;;;;4940207;29;21573;-83
2020/12/09 21:12:10;;;;;;;1999.90;999.90;;;7.10;99.90;;;;;;4956598;29;20228;-82
2020/12/09 21:14:38;;;;;;;1999.90;999.90;;;7.20;99.90;;;;;;4947897;29;20255;-81
2020/12/09 21:17:11;;;;;;;1999.90;999.90;;;7.20;99.90;;;;;;4956733;29;20205;-82
2020/12/09 21:19:38;;;;;;;1999.90;999.90;;;7.00;99.90;;;;;;4956935;29;20233;-81
2020/12/09 21:22:06;;;;;;;1999.90;999.90;;;7.00;99.90;;;;;;4956915;29;20295;-83
2020/12/09 21:24:33;;;;;;;1999.90;999.90;;;7.10;99.90;;;;;;4957769;29;20214;-78
2020/12/09 21:27:00;;;;;;;1999.90;999.90;;;7.20;99.90;;;;;;4957629;29;20205;-81
2020/12/09 21:29:27;;;;;;;1999.90;999.90;;;7.10;99.90;;;;;;4955416;29;20230;-80
2020/12/09 21:31:54;;;;;;;1999.90;999.90;;;7.30;99.90;;;;;;4957329;29;20588;-81
2020/12/09 21:34:21;;;;;;;1999.90;999.90;;;7.20;99.90;;;;;;4957257;29;20317;-79
2020/12/09 21:36:48;;;;;;;1999.90;999.90;;;7.00;99.90;;;;;;4952746;29;20256;-78
2020/12/09 21:39:16;;;;;;;1999.90;999.90;;;6.90;99.90;;;;;;4947073;29;20201;-78
2020/12/09 21:41:43;;;;;;;1999.90;999.90;;;6.80;99.90;;;;;;4949884;29;20217;-79
2020/12/09 21:44:10;;;;;;;1999.90;999.90;;;6.70;99.90;;;;;;4949544;29;20221;-80
2020/12/09 21:46:39;;;;;;;1999.90;999.90;;;6.70;99.90;;;;;;4948230;29;20264;-78
2020/12/09 21:49:10;;;;;;;1999.90;999.90;;;6.80;99.90;;;;;;4946940;28;20202;-78
2020/12/09 21:51:39;;;;;;;1999.90;999.90;;;6.80;99.90;;;;;;4950285;29;20276;-78
2020/12/09 21:54:06;;;;;;;1999.90;999.90;;;6.80;99.90;;;;;;4939062;29;20202;-79
2020/12/09 21:56:37;;;;;;;1999.90;999.90;;;6.70;99.90;;;;;;4937624;29;20210;-79
2020/12/09 21:59:05;;;;;;;1999.90;999.90;;;6.80;99.90;;;;;;4937600;29;20206;-79
